Startpagina
METAR-TAF:

METAR-TAF

Vliegvelden :

Djedda, Saoedi-Arabië

breedte: 21-42N, lengte: 039-11E, hoogte: 15 m

Actueel weer

Dit bericht is 37 minuten geleden gemaakt, om 16:00 UTC
Wind 12 kt uit het noordwesten
Temperatuur 28°C
Vochtigheid 55%
Druk 1008 hPa
Zicht: 8000 m
Weinig wolken op 3000 ft, Cumulonimbus.
Gebroken wolken op 4000 ft
onweer

METAR: OEJN 271600Z 31012KT 8000 TS FEW030CB BKN040 28/18 Q1008 TEMPO TS

Tijdstip: 19:37 (16:37 UTC)

Verwachting

Dit bericht is 3 uur en het 37 minuten geleden gemaakt, om 13:00 UTC
Verwachting geldig van 27 om 12 UTC tot 28 om 18 UTC
Wind 15 kt uit het noordwesten
Zicht: 7000 m
Verspreide wolken op 4000 ft
Verspreide wolken op 10000 ft
Tijdelijke
van 27 om 12 UTC tot 27 om 18 UTC
Wind 20 kt uit variabele richting
Zicht: 4000 m
Weinig wolken op 3500 ft, Cumulonimbus.
Wijzigt naar
van 27 om 18 UTC tot 27 om 20 UTC
Wind 10 kt uit het noorden

TAF: OEJN 271300Z 2712/2818 32015KT 7000 SCT040 SCT100 TEMPO 2712/2718 VRB20KT 4000 BLDU/TSRA FEW035CB BECMG 2718/2720 36010KT

Waarnemingen en weersverwachtingen van meer dan 4000 vliegvelden (METAR en TAF).

De beschikbare stations zijn de gele en rode punten op de kaart.

Ga met uw muis naar het station om de naam te zien.

Klik dan om waarnemingen en weersverwachtingen te zien.

kaart wijzigen: klik op de groene knoppen met een zwart kruis om in te zoomen, op de groene knop met een streepje om uit te zoomen of op de groene pijlen voor aangrenzende kaarten.


METAR-TAF: